Time;durP1;ratioP1;P1;durP2;ratioP2;P2;SDS_P1;SDS_P2;PMS_P1;PMS_P2;Temp;Humidity;BMP_temperature;BMP_pressure;BME280_temperature;BME280_humidity;BME280_pressure;Samples;Min_cycle;Max_cycle;Signal;HPM_P1;HPM_P2
2021/11/24 00:01:23;;;;;;;14.10;3.38;;;;;;;;;;5100630;28;20113;-65
2021/11/24 00:03:49;;;;;;;11.63;3.60;;;;;;;;;;5100528;28;20482;-72
2021/11/24 00:06:15;;;;;;;8.82;3.40;;;;;;;;;;5100909;28;20540;-71
2021/11/24 00:08:41;;;;;;;9.23;3.75;;;;;;;;;;5096608;28;20467;-71
2021/11/24 00:11:07;;;;;;;7.18;3.58;;;;;;;;;;5101327;28;20024;-72
2021/11/24 00:13:34;;;;;;;7.15;3.50;;;;;;;;;;5091782;28;20597;-62
2021/11/24 00:16:00;;;;;;;7.93;3.33;;;;;;;;;;5092686;28;20024;-63
2021/11/24 00:18:26;;;;;;;9.35;3.65;;;;;;;;;;5091868;28;20051;-64
2021/11/24 00:20:52;;;;;;;6.93;3.30;;;;;;;;;;5091946;28;20024;-72
2021/11/24 00:23:18;;;;;;;7.88;3.47;;;;;;;;;;5092134;28;20479;-62
2021/11/24 00:25:44;;;;;;;8.10;3.22;;;;;;;;;;5092005;28;20020;-78
2021/11/24 00:28:10;;;;;;;8.15;3.47;;;;;;;;;;5091771;28;20368;-76
2021/11/24 00:30:36;;;;;;;6.45;3.30;;;;;;;;;;5091777;28;20044;-68
2021/11/24 00:33:03;;;;;;;7.20;3.63;;;;;;;;;;5092193;28;20048;-70
2021/11/24 00:35:29;;;;;;;7.03;3.45;;;;;;;;;;5103891;28;20027;-64
2021/11/24 00:37:55;;;;;;;9.88;3.60;;;;;;;;;;5111998;28;20098;-66
2021/11/24 00:40:21;;;;;;;7.60;3.30;;;;;;;;;;5112031;28;20474;-64
2021/11/24 00:42:47;;;;;;;9.10;3.40;;;;;;;;;;5111870;28;20059;-64
2021/11/24 00:45:13;;;;;;;6.55;3.30;;;;;;;;;;5111257;28;20024;-70
2021/11/24 00:47:40;;;;;;;10.02;3.42;;;;;;;;;;5111440;28;20031;-72
2021/11/24 00:50:06;;;;;;;8.57;3.67;;;;;;;;;;5111981;28;20022;-63
2021/11/24 00:52:32;;;;;;;6.53;3.05;;;;;;;;;;5093746;28;20027;-62
2021/11/24 00:54:59;;;;;;;5.65;2.90;;;;;;;;;;5112211;28;20019;-64
2021/11/24 00:57:25;;;;;;;12.82;3.47;;;;;;;;;;5093531;28;20024;-63
2021/11/24 00:59:51;;;;;;;14.13;3.65;;;;;;;;;;5093882;28;20432;-72
2021/11/24 01:02:18;;;;;;;6.38;3.13;;;;;;;;;;5093456;28;20042;-64
2021/11/24 01:04:44;;;;;;;12.68;3.55;;;;;;;;;;5111497;28;20028;-64
2021/11/24 01:07:10;;;;;;;7.97;3.58;;;;;;;;;;5102007;28;20038;-66
2021/11/24 01:09:36;;;;;;;5.95;2.97;;;;;;;;;;5094550;28;20099;-63
2021/11/24 01:12:03;;;;;;;7.03;3.60;;;;;;;;;;5103374;28;20068;-63
2021/11/24 01:14:29;;;;;;;9.80;4.03;;;;;;;;;;5096228;28;20099;-64
2021/11/24 01:16:55;;;;;;;7.70;3.60;;;;;;;;;;5101889;28;20697;-65
2021/11/24 01:19:21;;;;;;;6.75;3.70;;;;;;;;;;5101415;28;20035;-65
2021/11/24 01:21:47;;;;;;;8.40;3.92;;;;;;;;;;5091079;28;20047;-71
2021/11/24 01:24:13;;;;;;;8.30;3.95;;;;;;;;;;5091612;28;20028;-64
2021/11/24 01:26:39;;;;;;;8.68;4.47;;;;;;;;;;5090891;28;20055;-67
2021/11/24 01:29:05;;;;;;;9.73;4.28;;;;;;;;;;5091151;28;20487;-74
2021/11/24 01:31:32;;;;;;;7.38;3.80;;;;;;;;;;5072954;28;20055;-62
2021/11/24 01:33:58;;;;;;;7.60;3.85;;;;;;;;;;5091280;28;20020;-68
2021/11/24 01:36:24;;;;;;;17.30;4.13;;;;;;;;;;5091038;28;20716;-68
2021/11/24 01:38:50;;;;;;;12.45;4.40;;;;;;;;;;5091229;28;20039;-67
2021/11/24 01:41:16;;;;;;;10.93;4.20;;;;;;;;;;5091217;28;20024;-67
2021/11/24 01:43:42;;;;;;;13.15;4.60;;;;;;;;;;5091362;28;20043;-65
2021/11/24 01:46:08;;;;;;;9.20;3.70;;;;;;;;;;5091279;28;20020;-72
2021/11/24 01:48:34;;;;;;;8.35;4.25;;;;;;;;;;5091179;28;20104;-65
2021/11/24 01:51:01;;;;;;;11.15;3.92;;;;;;;;;;5091554;28;20020;-67
2021/11/24 01:53:28;;;;;;;10.25;4.15;;;;;;;;;;5091313;28;20035;-61
2021/11/24 01:55:57;;;;;;;9.07;3.70;;;;;;;;;;5106105;28;20020;-73
2021/11/24 01:58:24;;;;;;;7.72;3.85;;;;;;;;;;5112889;28;20098;-68
2021/11/24 02:00:50;;;;;;;9.48;4.00;;;;;;;;;;5097080;28;20023;-63
2021/11/24 02:03:16;;;;;;;11.23;3.63;;;;;;;;;;5115201;28;20011;-63
2021/11/24 02:05:42;;;;;;;6.78;3.25;;;;;;;;;;5096993;28;20420;-72
2021/11/24 02:08:08;;;;;;;8.82;3.88;;;;;;;;;;5108954;28;20036;-73
2021/11/24 02:10:34;;;;;;;8.10;3.92;;;;;;;;;;5094664;28;20024;-62
2021/11/24 02:13:01;;;;;;;7.30;3.78;;;;;;;;;;5094660;28;20035;-73
2021/11/24 02:15:27;;;;;;;6.93;3.35;;;;;;;;;;5094907;28;20020;-62
2021/11/24 02:17:53;;;;;;;7.30;3.33;;;;;;;;;;5076755;28;20036;-63
2021/11/24 02:20:34;;;;;;;10.05;3.47;;;;;;;;;;5094723;28;20022;-61
2021/11/24 02:23:01;;;;;;;7.57;3.25;;;;;;;;;;5094621;28;20084;-67
2021/11/24 02:25:27;;;;;;;7.30;3.10;;;;;;;;;;5094382;28;20017;-67
2021/11/24 02:27:53;;;;;;;8.00;3.85;;;;;;;;;;5094068;28;20028;-62
2021/11/24 02:30:19;;;;;;;7.03;3.30;;;;;;;;;;5094377;28;20031;-63
2021/11/24 02:32:45;;;;;;;8.80;3.05;;;;;;;;;;5093930;28;23103;-69
2021/11/24 02:35:12;;;;;;;7.97;3.22;;;;;;;;;;5105456;28;20051;-70
2021/11/24 02:37:38;;;;;;;7.38;3.50;;;;;;;;;;5114334;28;20035;-66
2021/11/24 02:40:04;;;;;;;7.72;3.15;;;;;;;;;;5095371;28;20028;-64
2021/11/24 02:42:31;;;;;;;7.55;3.30;;;;;;;;;;5094081;28;20051;-62
2021/11/24 02:44:57;;;;;;;9.80;3.80;;;;;;;;;;5093450;28;20028;-66
2021/11/24 02:47:25;;;;;;;8.25;3.00;;;;;;;;;;5075319;28;20024;-65
2021/11/24 02:49:52;;;;;;;9.98;3.58;;;;;;;;;;5094042;28;20509;-64
2021/11/24 02:52:19;;;;;;;7.38;3.30;;;;;;;;;;5093392;28;20028;-71
2021/11/24 02:55:05;;;;;;;6.25;2.88;;;;;;;;;;5093587;28;20020;-68
2021/11/24 02:57:35;;;;;;;5.90;3.17;;;;;;;;;;5093438;28;20024;-65
2021/11/24 03:00:05;;;;;;;7.57;3.80;;;;;;;;;;5093153;28;20498;-68
2021/11/24 03:02:31;;;;;;;12.20;3.85;;;;;;;;;;5093118;28;20471;-67
2021/11/24 03:04:57;;;;;;;8.23;2.88;;;;;;;;;;5093103;28;20027;-69
2021/11/24 03:07:23;;;;;;;6.60;3.30;;;;;;;;;;5075541;28;20063;-64
2021/11/24 03:09:52;;;;;;;6.43;2.90;;;;;;;;;;5074675;28;20028;-72
2021/11/24 03:12:18;;;;;;;6.07;2.75;;;;;;;;;;5075081;28;20100;-65
2021/11/24 03:14:44;;;;;;;6.68;3.10;;;;;;;;;;5093190;28;20023;-62
2021/11/24 03:17:10;;;;;;;5.75;2.80;;;;;;;;;;5075563;28;20072;-62
2021/11/24 03:19:36;;;;;;;5.45;2.65;;;;;;;;;;5093330;28;20016;-62
2021/11/24 03:22:03;;;;;;;5.75;2.60;;;;;;;;;;5093417;28;20521;-71
2021/11/24 03:24:29;;;;;;;5.38;2.90;;;;;;;;;;5093504;28;20024;-68
2021/11/24 03:26:55;;;;;;;5.68;2.65;;;;;;;;;;5093502;28;20470;-70
2021/11/24 03:29:21;;;;;;;4.45;2.60;;;;;;;;;;5093450;28;20028;-67
2021/11/24 03:31:47;;;;;;;4.40;2.30;;;;;;;;;;5093384;28;20012;-73
2021/11/24 03:34:13;;;;;;;5.20;3.00;;;;;;;;;;5093041;28;20174;-68
2021/11/24 03:36:39;;;;;;;7.18;3.35;;;;;;;;;;5092686;28;20012;-63
2021/11/24 03:39:05;;;;;;;6.25;2.83;;;;;;;;;;5074532;28;20055;-63
2021/11/24 03:41:32;;;;;;;5.35;2.75;;;;;;;;;;5092573;28;20028;-71
2021/11/24 03:43:58;;;;;;;5.45;2.75;;;;;;;;;;5092629;28;20062;-71
2021/11/24 03:46:24;;;;;;;7.93;3.00;;;;;;;;;;5092525;28;20036;-71
2021/11/24 03:48:50;;;;;;;6.10;2.92;;;;;;;;;;5092690;28;20020;-71
2021/11/24 03:51:16;;;;;;;5.80;2.78;;;;;;;;;;5092765;28;20518;-69
2021/11/24 03:53:42;;;;;;;5.53;2.58;;;;;;;;;;5074277;28;20024;-63
2021/11/24 03:56:10;;;;;;;5.53;2.67;;;;;;;;;;5084574;28;20027;-66
2021/11/24 03:58:36;;;;;;;5.47;2.90;;;;;;;;;;5112798;28;20015;-64
2021/11/24 04:01:06;;;;;;;7.25;3.22;;;;;;;;;;5112608;28;20087;-71
2021/11/24 04:03:32;;;;;;;5.22;2.90;;;;;;;;;;5112502;28;20024;-63
2021/11/24 04:05:58;;;;;;;7.03;2.90;;;;;;;;;;5112485;28;20020;-64
2021/11/24 04:08:25;;;;;;;6.40;3.10;;;;;;;;;;5112498;28;20028;-64
2021/11/24 04:10:51;;;;;;;5.45;2.65;;;;;;;;;;5112474;28;20043;-73
2021/11/24 04:13:17;;;;;;;5.68;2.85;;;;;;;;;;5112434;28;20062;-63
2021/11/24 04:15:43;;;;;;;7.63;3.08;;;;;;;;;;5112559;28;20031;-69
2021/11/24 04:18:09;;;;;;;11.35;3.03;;;;;;;;;;5112500;28;20531;-62
2021/11/24 04:20:35;;;;;;;5.88;2.78;;;;;;;;;;5111737;28;20023;-64
2021/11/24 04:23:01;;;;;;;8.35;3.28;;;;;;;;;;5112458;28;20506;-63
2021/11/24 04:25:27;;;;;;;6.63;3.25;;;;;;;;;;5112394;28;20461;-63
2021/11/24 04:27:53;;;;;;;7.43;3.55;;;;;;;;;;5112248;28;20036;-69
2021/11/24 04:30:20;;;;;;;8.57;3.30;;;;;;;;;;5112285;28;20051;-65
2021/11/24 04:32:46;;;;;;;8.40;3.38;;;;;;;;;;5112192;28;20035;-62
2021/11/24 04:35:12;;;;;;;8.70;3.55;;;;;;;;;;5112197;28;20047;-63
2021/11/24 04:37:38;;;;;;;6.40;3.53;;;;;;;;;;5093878;28;20020;-63
2021/11/24 04:40:06;;;;;;;6.25;3.15;;;;;;;;;;5094237;28;20402;-70
2021/11/24 04:42:32;;;;;;;7.00;3.72;;;;;;;;;;5112083;28;20565;-69
2021/11/24 04:44:58;;;;;;;7.20;3.42;;;;;;;;;;5112219;28;20106;-66
2021/11/24 04:47:24;;;;;;;7.25;3.50;;;;;;;;;;5112017;28;20032;-66
2021/11/24 04:49:50;;;;;;;7.65;3.67;;;;;;;;;;5093685;28;20475;-63
2021/11/24 04:52:16;;;;;;;7.85;3.50;;;;;;;;;;5093768;28;20129;-72
2021/11/24 04:54:42;;;;;;;7.05;3.80;;;;;;;;;;5111725;28;20015;-75
2021/11/24 04:57:09;;;;;;;8.88;3.42;;;;;;;;;;5111891;28;20103;-76
2021/11/24 04:59:35;;;;;;;6.43;3.70;;;;;;;;;;5112098;28;20024;-62
2021/11/24 05:02:02;;;;;;;7.20;3.40;;;;;;;;;;5112024;28;20024;-74
2021/11/24 05:04:28;;;;;;;8.43;3.70;;;;;;;;;;5111910;28;20019;-68
2021/11/24 05:06:54;;;;;;;6.18;3.17;;;;;;;;;;5111748;28;20483;-72
2021/11/24 05:09:21;;;;;;;6.90;3.60;;;;;;;;;;5111816;28;20027;-71
2021/11/24 05:11:47;;;;;;;7.90;3.25;;;;;;;;;;5111819;28;20470;-70
2021/11/24 05:14:22;;;;;;;6.13;3.28;;;;;;;;;;5105785;28;20085;-64
2021/11/24 05:16:49;;;;;;;7.20;3.28;;;;;;;;;;5091188;28;20024;-73
2021/11/24 05:19:20;;;;;;;7.85;3.20;;;;;;;;;;5091148;28;20107;-66
2021/11/24 05:21:51;;;;;;;6.28;3.20;;;;;;;;;;5091157;28;20012;-63
2021/11/24 05:24:17;;;;;;;6.97;3.35;;;;;;;;;;5091278;28;20028;-63
2021/11/24 05:26:44;;;;;;;6.32;3.33;;;;;;;;;;5091277;28;20490;-63
2021/11/24 05:29:10;;;;;;;7.15;3.17;;;;;;;;;;5091406;28;20032;-62
2021/11/24 05:31:36;;;;;;;5.65;2.90;;;;;;;;;;5091416;28;20012;-66
2021/11/24 05:34:03;;;;;;;10.05;3.10;;;;;;;;;;5077078;28;20106;-63
2021/11/24 05:36:29;;;;;;;7.15;2.97;;;;;;;;;;5095212;28;20056;-62
2021/11/24 05:38:56;;;;;;;5.93;3.05;;;;;;;;;;5094955;28;20103;-62
2021/11/24 05:41:22;;;;;;;6.13;3.10;;;;;;;;;;5094935;28;20024;-63
2021/11/24 05:43:51;;;;;;;6.32;2.97;;;;;;;;;;5095060;28;20081;-64
2021/11/24 05:46:43;;;;;;;6.22;3.08;;;;;;;;;;5094827;28;20378;-62
2021/11/24 05:49:04;;;;;;;5.75;2.70;;;;;;;;;;5094372;28;20032;-62
2021/11/24 05:51:30;;;;;;;9.40;2.83;;;;;;;;;;5094828;28;20031;-64
2021/11/24 05:53:56;;;;;;;6.10;2.78;;;;;;;;;;5094772;28;20016;-65
2021/11/24 05:56:22;;;;;;;7.03;3.00;;;;;;;;;;5099891;28;20024;-73
2021/11/24 05:58:48;;;;;;;7.45;2.78;;;;;;;;;;5114984;28;20051;-64
2021/11/24 06:01:14;;;;;;;6.45;2.53;;;;;;;;;;5115036;28;20528;-72
2021/11/24 06:03:41;;;;;;;4.65;2.50;;;;;;;;;;5096497;28;20485;-64
2021/11/24 06:06:07;;;;;;;6.95;2.75;;;;;;;;;;5114954;28;20019;-64
2021/11/24 06:08:33;;;;;;;6.78;3.33;;;;;;;;;;5096595;28;20379;-65
2021/11/24 06:10:59;;;;;;;7.20;3.10;;;;;;;;;;5114907;28;20442;-64
2021/11/24 06:13:25;;;;;;;5.47;2.75;;;;;;;;;;5114802;28;20051;-64
2021/11/24 06:15:51;;;;;;;12.13;3.10;;;;;;;;;;5096532;28;20034;-63
2021/11/24 06:18:19;;;;;;;8.20;3.00;;;;;;;;;;5096115;28;20015;-75
2021/11/24 06:20:45;;;;;;;8.82;2.80;;;;;;;;;;5114620;28;20092;-71
2021/11/24 06:23:12;;;;;;;6.07;2.85;;;;;;;;;;5108107;28;20020;-73
2021/11/24 06:25:38;;;;;;;7.20;2.80;;;;;;;;;;5106556;28;20024;-72
2021/11/24 06:28:04;;;;;;;5.72;2.53;;;;;;;;;;5114249;28;20383;-75
2021/11/24 06:30:31;;;;;;;7.53;2.58;;;;;;;;;;5095856;28;20044;-73
2021/11/24 06:32:57;;;;;;;5.80;2.70;;;;;;;;;;5093785;28;20160;-72
2021/11/24 06:35:23;;;;;;;6.32;2.97;;;;;;;;;;5102924;28;20027;-70
2021/11/24 06:37:49;;;;;;;4.93;2.55;;;;;;;;;;5113711;28;20032;-64
2021/11/24 06:40:15;;;;;;;7.72;2.90;;;;;;;;;;5095782;28;20027;-62
2021/11/24 06:42:41;;;;;;;6.55;3.05;;;;;;;;;;5114225;28;20043;-61
2021/11/24 06:45:08;;;;;;;9.65;2.83;;;;;;;;;;5095223;28;20027;-65
2021/11/24 06:47:35;;;;;;;6.68;2.97;;;;;;;;;;5114331;28;20470;-64
2021/11/24 06:50:01;;;;;;;6.25;3.30;;;;;;;;;;5114457;28;20119;-62
2021/11/24 06:52:27;;;;;;;8.07;3.40;;;;;;;;;;5114463;28;20023;-62
2021/11/24 06:54:53;;;;;;;5.38;2.90;;;;;;;;;;5114292;28;20023;-62
2021/11/24 06:57:19;;;;;;;11.18;3.50;;;;;;;;;;5113734;28;20084;-63
2021/11/24 06:59:45;;;;;;;5.28;3.13;;;;;;;;;;5111235;28;20016;-69
2021/11/24 07:02:12;;;;;;;6.97;3.20;;;;;;;;;;5106204;28;20046;-67
2021/11/24 07:04:38;;;;;;;7.78;2.50;;;;;;;;;;5112973;28;20032;-72
2021/11/24 07:07:04;;;;;;;9.07;3.00;;;;;;;;;;5098179;28;20028;-73
2021/11/24 07:09:30;;;;;;;7.88;2.70;;;;;;;;;;5074971;28;20020;-73
2021/11/24 07:11:56;;;;;;;7.45;3.25;;;;;;;;;;5074839;28;20473;-72
2021/11/24 07:14:22;;;;;;;7.00;3.30;;;;;;;;;;5099729;28;20629;-75
2021/11/24 07:16:48;;;;;;;6.13;3.25;;;;;;;;;;5113639;28;20031;-72
2021/11/24 07:19:16;;;;;;;6.28;3.17;;;;;;;;;;5100293;28;20012;-71
2021/11/24 07:21:47;;;;;;;7.93;3.08;;;;;;;;;;5112603;28;20019;-72
2021/11/24 07:24:14;;;;;;;7.05;2.92;;;;;;;;;;5113063;28;20018;-71
2021/11/24 07:26:40;;;;;;;10.73;3.35;;;;;;;;;;5094617;28;20123;-72
2021/11/24 07:29:06;;;;;;;4.90;2.90;;;;;;;;;;5112333;28;20023;-73
2021/11/24 07:31:32;;;;;;;11.13;3.10;;;;;;;;;;5112607;28;20084;-72
2021/11/24 07:33:58;;;;;;;6.30;3.00;;;;;;;;;;5112986;28;20513;-71
2021/11/24 07:36:24;;;;;;;7.20;2.40;;;;;;;;;;5112338;28;20386;-72
2021/11/24 07:38:50;;;;;;;5.45;2.70;;;;;;;;;;5112981;28;20039;-72
2021/11/24 07:41:16;;;;;;;7.43;2.55;;;;;;;;;;5112484;28;20371;-73
2021/11/24 07:43:42;;;;;;;8.43;3.08;;;;;;;;;;5112910;28;20033;-73
2021/11/24 07:46:08;;;;;;;6.78;2.75;;;;;;;;;;5112778;28;20103;-72
2021/11/24 07:48:35;;;;;;;9.65;2.97;;;;;;;;;;5112750;28;20445;-73
2021/11/24 07:51:01;;;;;;;5.72;2.60;;;;;;;;;;5112446;28;20027;-73
2021/11/24 07:53:27;;;;;;;5.65;2.72;;;;;;;;;;5112804;28;20136;-73
2021/11/24 07:55:53;;;;;;;7.00;2.97;;;;;;;;;;5077386;28;20050;-72
2021/11/24 07:58:20;;;;;;;5.85;2.97;;;;;;;;;;5092178;28;20020;-74
2021/11/24 08:00:46;;;;;;;6.22;2.70;;;;;;;;;;5111440;28;20051;-75
2021/11/24 08:03:13;;;;;;;6.55;2.97;;;;;;;;;;5112019;28;20028;-74
2021/11/24 08:05:39;;;;;;;5.68;2.42;;;;;;;;;;5112364;28;20023;-66
2021/11/24 08:08:05;;;;;;;5.32;2.60;;;;;;;;;;5112039;28;20035;-71
2021/11/24 08:10:31;;;;;;;5.47;2.60;;;;;;;;;;5112147;28;20471;-69
2021/11/24 08:12:58;;;;;;;8.15;3.22;;;;;;;;;;5112568;28;20031;-73
2021/11/24 08:15:24;;;;;;;9.75;3.63;;;;;;;;;;5112733;28;20490;-65
2021/11/24 08:17:50;;;;;;;9.75;3.45;;;;;;;;;;5112624;28;20055;-68
2021/11/24 08:20:16;;;;;;;7.82;3.40;;;;;;;;;;5112513;28;20024;-63
2021/11/24 08:22:42;;;;;;;7.25;3.05;;;;;;;;;;5112368;28;20016;-76
2021/11/24 08:25:09;;;;;;;14.98;4.25;;;;;;;;;;5112600;28;20388;-71
2021/11/24 08:27:38;;;;;;;9.45;3.80;;;;;;;;;;5112330;28;20031;-72
2021/11/24 08:30:05;;;;;;;7.85;3.40;;;;;;;;;;5112460;28;20020;-65
2021/11/24 08:32:31;;;;;;;8.63;3.65;;;;;;;;;;5093963;28;20047;-75
2021/11/24 08:34:59;;;;;;;9.35;3.88;;;;;;;;;;5105899;28;20054;-63
2021/11/24 08:37:25;;;;;;;6.80;4.05;;;;;;;;;;5091204;28;20023;-74
2021/11/24 08:39:51;;;;;;;7.97;4.50;;;;;;;;;;5091617;28;20377;-75
2021/11/24 08:42:17;;;;;;;8.77;4.35;;;;;;;;;;5091518;28;20447;-73
2021/11/24 08:44:44;;;;;;;9.68;5.00;;;;;;;;;;5091604;28;20031;-76
2021/11/24 08:47:10;;;;;;;9.43;4.72;;;;;;;;;;5091602;28;20024;-74
2021/11/24 08:49:36;;;;;;;11.15;5.00;;;;;;;;;;5091783;28;20499;-71
2021/11/24 08:52:03;;;;;;;9.27;4.60;;;;;;;;;;5091048;28;20048;-70
2021/11/24 08:54:31;;;;;;;11.02;5.00;;;;;;;;;;5090227;28;20025;-74
2021/11/24 08:56:57;;;;;;;8.02;4.65;;;;;;;;;;5090521;28;20103;-75
2021/11/24 08:59:23;;;;;;;8.70;4.70;;;;;;;;;;5090438;28;20518;-73
2021/11/24 09:01:49;;;;;;;9.65;4.82;;;;;;;;;;5089825;28;20430;-65
2021/11/24 09:04:15;;;;;;;8.75;5.20;;;;;;;;;;5090236;28;20028;-66
2021/11/24 09:06:41;;;;;;;11.10;5.65;;;;;;;;;;5073069;28;20032;-76
2021/11/24 09:09:08;;;;;;;13.10;5.22;;;;;;;;;;5095043;28;20081;-76
2021/11/24 09:11:34;;;;;;;11.95;5.00;;;;;;;;;;5094903;28;20055;-74
2021/11/24 09:14:00;;;;;;;8.55;4.72;;;;;;;;;;5095330;28;20027;-76
2021/11/24 09:16:26;;;;;;;9.85;5.32;;;;;;;;;;5095719;28;20070;-74
2021/11/24 09:18:52;;;;;;;8.88;5.05;;;;;;;;;;5077882;28;20463;-76
2021/11/24 09:21:20;;;;;;;8.00;4.65;;;;;;;;;;5095617;28;20020;-62
2021/11/24 09:23:49;;;;;;;9.35;5.10;;;;;;;;;;5095731;28;20135;-75
2021/11/24 09:28:47;;;;;;;9.93;5.25;;;;;;;;;;5095597;28;20744;-75
2021/11/24 09:31:13;;;;;;;9.30;4.88;;;;;;;;;;5095436;28;20470;-77
2021/11/24 09:33:40;;;;;;;11.10;6.00;;;;;;;;;;5095251;28;20035;-64
2021/11/24 09:36:07;;;;;;;9.60;4.85;;;;;;;;;;5095188;28;20024;-75
2021/11/24 09:38:33;;;;;;;9.93;5.40;;;;;;;;;;5095103;28;20027;-68
2021/11/24 09:41:04;;;;;;;7.75;4.72;;;;;;;;;;5095019;28;20056;-75
2021/11/24 09:43:31;;;;;;;10.20;5.22;;;;;;;;;;5076824;28;20131;-68
2021/11/24 09:45:58;;;;;;;11.75;5.45;;;;;;;;;;5095303;28;20078;-68
2021/11/24 09:48:24;;;;;;;9.20;5.35;;;;;;;;;;5095087;28;20032;-74
2021/11/24 09:50:50;;;;;;;9.07;5.32;;;;;;;;;;5094961;28;20055;-73
2021/11/24 09:53:17;;;;;;;10.13;5.53;;;;;;;;;;5094888;28;20020;-75
2021/11/24 09:55:43;;;;;;;10.93;5.78;;;;;;;;;;5094995;28;20077;-62
2021/11/24 09:58:10;;;;;;;9.57;5.72;;;;;;;;;;5094999;28;20107;-62
2021/11/24 10:00:37;;;;;;;11.63;5.75;;;;;;;;;;5094922;28;20020;-75
2021/11/24 10:03:04;;;;;;;9.15;5.78;;;;;;;;;;5094168;28;20108;-74
2021/11/24 10:05:31;;;;;;;11.95;5.70;;;;;;;;;;5076091;28;20070;-72
2021/11/24 10:07:57;;;;;;;10.23;5.32;;;;;;;;;;5094643;28;20032;-70
2021/11/24 10:10:23;;;;;;;11.68;5.78;;;;;;;;;;5094555;28;20047;-69
2021/11/24 10:12:49;;;;;;;11.73;6.13;;;;;;;;;;5094456;28;20032;-68
2021/11/24 10:15:33;;;;;;;10.55;6.13;;;;;;;;;;5094362;28;20020;-75
2021/11/24 10:18:15;;;;;;;10.05;5.57;;;;;;;;;;5093838;28;20020;-62
2021/11/24 10:20:48;;;;;;;10.73;6.28;;;;;;;;;;5094186;28;20043;-70
2021/11/24 10:23:31;;;;;;;11.40;5.80;;;;;;;;;;5076034;28;20032;-73
2021/11/24 10:26:12;;;;;;;9.57;6.28;;;;;;;;;;5094333;28;20107;-67
2021/11/24 10:28:38;;;;;;;13.98;6.20;;;;;;;;;;5094320;28;20043;-75
2021/11/24 10:31:21;;;;;;;8.95;5.60;;;;;;;;;;5094192;28;20046;-67
2021/11/24 10:33:48;;;;;;;9.48;5.70;;;;;;;;;;5094074;28;20020;-75
2021/11/24 10:36:14;;;;;;;8.73;5.93;;;;;;;;;;5076057;28;20141;-75
2021/11/24 10:38:44;;;;;;;10.77;6.38;;;;;;;;;;5094209;28;20100;-64
2021/11/24 10:41:11;;;;;;;10.43;5.72;;;;;;;;;;5097394;28;20020;-74
2021/11/24 10:43:45;;;;;;;13.20;5.82;;;;;;;;;;5094793;28;20028;-75
2021/11/24 10:46:13;;;;;;;8.90;5.75;;;;;;;;;;5094353;28;20099;-73
2021/11/24 10:48:40;;;;;;;9.05;5.45;;;;;;;;;;5094195;28;20028;-74
2021/11/24 10:51:26;;;;;;;10.40;5.78;;;;;;;;;;5094164;28;20043;-76
2021/11/24 10:54:03;;;;;;;14.30;5.45;;;;;;;;;;5109653;28;20039;-76
2021/11/24 10:56:30;;;;;;;10.02;5.15;;;;;;;;;;5094987;28;20092;-67
2021/11/24 10:59:15;;;;;;;10.70;5.38;;;;;;;;;;5093233;28;20020;-74
2021/11/24 11:01:42;;;;;;;8.65;5.30;;;;;;;;;;5098819;28;20016;-75
2021/11/24 11:04:08;;;;;;;9.93;5.32;;;;;;;;;;5114024;28;20012;-72
2021/11/24 11:06:34;;;;;;;10.85;5.43;;;;;;;;;;5113655;28;20101;-74
2021/11/24 11:09:00;;;;;;;10.75;5.50;;;;;;;;;;5113663;28;20031;-75
2021/11/24 11:11:33;;;;;;;10.70;5.82;;;;;;;;;;5113417;28;20024;-72
2021/11/24 11:14:13;;;;;;;11.50;5.95;;;;;;;;;;5106107;28;20027;-74
2021/11/24 11:16:58;;;;;;;12.45;5.88;;;;;;;;;;5093184;28;20051;-63
2021/11/24 11:19:39;;;;;;;11.55;6.05;;;;;;;;;;5093743;28;20024;-74
2021/11/24 11:22:06;;;;;;;8.77;5.65;;;;;;;;;;5093308;28;20012;-65
2021/11/24 11:24:32;;;;;;;12.18;6.38;;;;;;;;;;5074782;28;20183;-75
2021/11/24 11:26:59;;;;;;;9.50;5.80;;;;;;;;;;5092829;28;20071;-75
2021/11/24 11:29:25;;;;;;;11.25;6.45;;;;;;;;;;5092706;28;20020;-66
2021/11/24 11:31:51;;;;;;;9.27;5.40;;;;;;;;;;5092853;28;20027;-63
2021/11/24 11:34:17;;;;;;;9.40;5.57;;;;;;;;;;5092963;28;20435;-74
2021/11/24 11:36:43;;;;;;;10.00;5.72;;;;;;;;;;5093213;28;20213;-65
2021/11/24 11:39:10;;;;;;;9.30;5.70;;;;;;;;;;5104726;28;20023;-67
2021/11/24 11:41:37;;;;;;;11.98;6.18;;;;;;;;;;5113031;28;20046;-70
2021/11/24 11:44:04;;;;;;;11.75;6.38;;;;;;;;;;5094485;28;20108;-76
2021/11/24 11:46:35;;;;;;;10.63;5.55;;;;;;;;;;5112500;28;20016;-68
2021/11/24 11:49:33;;;;;;;10.73;5.80;;;;;;;;;;5112399;28;20035;-62
2021/11/24 11:52:10;;;;;;;12.82;6.18;;;;;;;;;;5039504;28;20096;-62
2021/11/24 11:54:36;;;;;;;11.57;5.82;;;;;;;;;;5106490;28;20020;-67
2021/11/24 11:57:06;;;;;;;11.02;6.07;;;;;;;;;;5092171;28;20023;-67
2021/11/24 11:59:35;;;;;;;9.98;5.47;;;;;;;;;;5073246;28;20039;-75
2021/11/24 12:02:04;;;;;;;9.25;5.53;;;;;;;;;;5091774;28;20136;-75
2021/11/24 12:04:31;;;;;;;9.32;5.72;;;;;;;;;;5091856;28;20016;-62
2021/11/24 12:06:57;;;;;;;9.35;5.55;;;;;;;;;;5091927;28;20078;-67
2021/11/24 12:09:26;;;;;;;12.38;6.65;;;;;;;;;;5092211;28;20040;-73
2021/11/24 12:12:03;;;;;;;14.20;7.03;;;;;;;;;;5091617;28;20020;-72
2021/11/24 12:14:48;;;;;;;35.90;12.68;;;;;;;;;;5091779;28;20479;-71
2021/11/24 12:19:58;;;;;;;28.20;14.00;;;;;;;;;;5091978;28;20024;-73
2021/11/24 12:22:59;;;;;;;22.35;12.50;;;;;;;;;;5073212;28;20165;-68
2021/11/24 12:27:52;;;;;;;19.67;13.48;;;;;;;;;;5092100;28;20078;-63
2021/11/24 12:30:40;;;;;;;18.63;12.20;;;;;;;;;;5091440;28;20099;-70
2021/11/24 12:33:15;;;;;;;25.00;16.67;;;;;;;;;;5091389;28;20047;-75
2021/11/24 12:36:01;;;;;;;28.10;16.38;;;;;;;;;;5091229;28;20020;-70
2021/11/24 12:38:29;;;;;;;19.58;11.45;;;;;;;;;;5073022;28;20020;-67
2021/11/24 12:40:57;;;;;;;16.33;10.98;;;;;;;;;;5073014;28;20384;-75
2021/11/24 12:43:24;;;;;;;13.30;9.15;;;;;;;;;;5072736;28;20453;-67
2021/11/24 12:46:10;;;;;;;19.38;9.13;;;;;;;;;;5089750;28;20407;-74
2021/11/24 12:48:38;;;;;;;20.77;8.25;;;;;;;;;;5089675;28;20036;-67
2021/11/24 12:51:04;;;;;;;12.88;7.65;;;;;;;;;;5098712;28;20103;-71
2021/11/24 12:53:36;;;;;;;19.15;9.45;;;;;;;;;;5093106;28;20024;-67
2021/11/24 12:56:06;;;;;;;16.05;8.23;;;;;;;;;;5110152;28;20467;-65
2021/11/24 12:58:33;;;;;;;17.30;8.30;;;;;;;;;;5110151;28;20035;-68
2021/11/24 13:01:05;;;;;;;21.23;9.30;;;;;;;;;;5104664;28;20101;-72
2021/11/24 13:03:31;;;;;;;14.57;7.93;;;;;;;;;;5090692;28;20024;-71
2021/11/24 13:05:57;;;;;;;15.25;7.57;;;;;;;;;;5090668;28;20138;-65
2021/11/24 13:08:23;;;;;;;15.15;7.63;;;;;;;;;;5090675;28;20394;-71
2021/11/24 13:11:03;;;;;;;13.38;7.43;;;;;;;;;;5090760;28;20459;-72
2021/11/24 13:13:30;;;;;;;15.85;8.15;;;;;;;;;;5111130;28;20031;-74
2021/11/24 13:15:56;;;;;;;12.30;7.32;;;;;;;;;;5111381;28;20024;-73
2021/11/24 13:18:23;;;;;;;13.38;7.95;;;;;;;;;;5102925;28;20470;-75
2021/11/24 13:20:49;;;;;;;14.02;7.45;;;;;;;;;;5091090;28;20030;-72
2021/11/24 13:23:16;;;;;;;15.20;7.50;;;;;;;;;;5090786;28;20016;-76
2021/11/24 13:25:42;;;;;;;16.20;7.82;;;;;;;;;;5072707;28;20016;-68
2021/11/24 13:28:10;;;;;;;17.70;7.25;;;;;;;;;;5090756;28;20063;-69
2021/11/24 13:30:42;;;;;;;11.70;7.45;;;;;;;;;;5090609;28;20575;-74
2021/11/24 13:33:08;;;;;;;18.30;7.20;;;;;;;;;;5090749;28;20475;-75
2021/11/24 13:35:39;;;;;;;13.23;6.90;;;;;;;;;;5091124;28;20459;-69
2021/11/24 13:38:06;;;;;;;14.60;6.95;;;;;;;;;;5091054;28;20055;-78
2021/11/24 13:40:43;;;;;;;16.13;7.47;;;;;;;;;;5090817;28;20028;-75
2021/11/24 13:43:10;;;;;;;10.73;6.63;;;;;;;;;;5090714;28;20046;-67
2021/11/24 13:45:37;;;;;;;12.45;6.82;;;;;;;;;;5090738;28;20058;-73
2021/11/24 13:48:19;;;;;;;11.65;6.45;;;;;;;;;;5090645;28;20123;-71
2021/11/24 13:51:14;;;;;;;12.73;6.50;;;;;;;;;;5090721;28;20093;-71
2021/11/24 13:53:42;;;;;;;12.02;6.32;;;;;;;;;;5075309;28;20040;-67
2021/11/24 13:56:09;;;;;;;12.82;5.50;;;;;;;;;;5097268;28;20043;-62
2021/11/24 13:58:35;;;;;;;11.63;6.00;;;;;;;;;;5114948;28;20019;-73
2021/11/24 14:01:12;;;;;;;13.43;6.22;;;;;;;;;;5115018;28;20020;-74
2021/11/24 14:03:38;;;;;;;10.25;6.25;;;;;;;;;;5114632;28;20031;-62
2021/11/24 14:06:04;;;;;;;10.90;5.78;;;;;;;;;;5114983;28;20417;-62
2021/11/24 14:08:38;;;;;;;11.68;5.68;;;;;;;;;;5114768;28;20028;-71
2021/11/24 14:11:04;;;;;;;9.70;5.50;;;;;;;;;;5096877;28;20552;-67
2021/11/24 14:13:34;;;;;;;10.35;5.65;;;;;;;;;;5114772;28;20156;-69
2021/11/24 14:16:18;;;;;;;11.95;5.28;;;;;;;;;;5114338;28;20522;-74
2021/11/24 14:18:44;;;;;;;11.48;5.68;;;;;;;;;;5114292;28;20478;-70
2021/11/24 14:21:10;;;;;;;14.63;6.32;;;;;;;;;;5114556;28;20467;-71
2021/11/24 14:23:36;;;;;;;14.57;6.03;;;;;;;;;;5096265;28;20024;-65
2021/11/24 14:26:02;;;;;;;11.50;5.18;;;;;;;;;;5114785;28;20497;-73
2021/11/24 14:28:37;;;;;;;12.45;6.75;;;;;;;;;;5111368;28;20399;-70
2021/11/24 14:31:04;;;;;;;10.63;6.00;;;;;;;;;;5093456;28;20020;-72
2021/11/24 14:33:31;;;;;;;13.88;6.00;;;;;;;;;;5093413;28;20055;-72
2021/11/24 14:35:57;;;;;;;13.38;6.60;;;;;;;;;;5093810;28;20032;-65
2021/11/24 14:38:23;;;;;;;10.90;6.40;;;;;;;;;;5093899;28;20024;-66
2021/11/24 14:40:50;;;;;;;12.65;6.75;;;;;;;;;;5075487;28;20035;-74
2021/11/24 14:43:17;;;;;;;13.48;6.65;;;;;;;;;;5100335;28;20390;-73
2021/11/24 14:45:43;;;;;;;12.20;6.07;;;;;;;;;;5114257;28;20020;-66
2021/11/24 14:48:10;;;;;;;12.20;6.60;;;;;;;;;;5081725;28;20483;-73
2021/11/24 14:50:36;;;;;;;10.18;6.03;;;;;;;;;;5093405;28;20510;-74